createdAt,value
2018-05-10T00:00:44.145Z,928.45
2018-05-10T00:01:44.143Z,928.43
2018-05-10T00:02:44.146Z,928.43
2018-05-10T00:03:44.148Z,928.37
2018-05-10T00:04:44.143Z,928.38
2018-05-10T00:05:44.145Z,928.38
2018-05-10T00:06:44.140Z,928.37
2018-05-10T00:07:44.170Z,928.37
2018-05-10T00:08:44.141Z,928.35
2018-05-10T00:09:44.139Z,928.37
2018-05-10T00:10:44.139Z,928.36
2018-05-10T00:11:44.138Z,928.37
2018-05-10T00:12:44.139Z,928.37
2018-05-10T00:13:44.138Z,928.36
2018-05-10T00:14:44.136Z,928.33
2018-05-10T00:15:44.137Z,928.32
2018-05-10T00:16:44.137Z,928.32
2018-05-10T00:17:44.136Z,928.28
2018-05-10T00:18:44.136Z,928.28
2018-05-10T00:19:44.135Z,928.28
2018-05-10T00:20:44.138Z,928.30
2018-05-10T00:22:44.134Z,928.30
2018-05-10T00:23:44.134Z,928.30
2018-05-10T00:24:44.140Z,928.29
2018-05-10T00:25:44.132Z,928.29
2018-05-10T00:26:44.131Z,928.28
2018-05-10T00:27:44.132Z,928.27
2018-05-10T00:28:44.132Z,928.26
2018-05-10T00:29:44.130Z,928.28
2018-05-10T00:30:44.129Z,928.27
2018-05-10T00:31:44.129Z,928.26
2018-05-10T00:32:44.128Z,928.32
2018-05-10T00:33:44.128Z,928.32
2018-05-10T00:34:44.129Z,928.28
2018-05-10T00:35:44.356Z,928.32
2018-05-10T00:36:44.130Z,928.34
2018-05-10T00:37:44.126Z,928.34
2018-05-10T00:38:44.125Z,928.33
2018-05-10T00:39:44.125Z,928.35
2018-05-10T00:40:44.124Z,928.31
2018-05-10T00:41:44.128Z,928.37
2018-05-10T00:42:44.123Z,928.31
2018-05-10T00:43:44.124Z,928.34
2018-05-10T00:44:44.123Z,928.32
2018-05-10T00:45:44.119Z,928.32
2018-05-10T00:46:44.120Z,928.27
2018-05-10T00:47:44.121Z,928.27
2018-05-10T00:48:44.119Z,928.30
2018-05-10T00:49:44.119Z,928.26
2018-05-10T00:50:44.119Z,928.26
2018-05-10T00:51:44.118Z,928.30
2018-05-10T00:52:44.119Z,928.28
2018-05-10T00:53:44.116Z,928.26
2018-05-10T00:54:44.115Z,928.28
2018-05-10T00:55:44.117Z,928.33
2018-05-10T00:56:44.116Z,928.31
2018-05-10T00:57:44.114Z,928.32
2018-05-10T00:58:44.114Z,928.33
2018-05-10T00:59:44.112Z,928.35
2018-05-10T01:00:44.113Z,928.32
2018-05-10T01:01:44.111Z,928.34
2018-05-10T01:02:44.112Z,928.33
2018-05-10T01:03:44.108Z,928.34
2018-05-10T01:04:44.173Z,928.34
2018-05-10T01:05:44.108Z,928.33
2018-05-10T01:06:44.107Z,928.33
2018-05-10T01:07:44.107Z,928.31
2018-05-10T01:08:44.406Z,928.29
2018-05-10T01:09:44.104Z,928.32
2018-05-10T01:10:44.104Z,928.29
2018-05-10T01:11:44.104Z,928.33
2018-05-10T01:12:44.109Z,928.29
2018-05-10T01:13:44.103Z,928.28
2018-05-10T01:14:44.102Z,928.30
2018-05-10T01:15:44.101Z,928.28
2018-05-10T01:16:44.102Z,928.28
2018-05-10T01:17:44.100Z,928.27
2018-05-10T01:18:44.099Z,928.29
2018-05-10T01:19:44.099Z,928.33
2018-05-10T01:20:44.098Z,928.29
2018-05-10T01:21:44.096Z,928.31
2018-05-10T01:22:44.100Z,928.31
2018-05-10T01:23:44.096Z,928.28
2018-05-10T01:24:44.096Z,928.31
2018-05-10T01:25:44.092Z,928.29
2018-05-10T01:26:44.093Z,928.27
2018-05-10T01:27:44.092Z,928.28
2018-05-10T01:28:44.092Z,928.26
2018-05-10T01:29:44.095Z,928.25
2018-05-10T01:30:44.093Z,928.25
2018-05-10T01:31:44.089Z,928.27
2018-05-10T01:32:44.088Z,928.26
2018-05-10T01:33:44.087Z,928.28
2018-05-10T01:34:44.086Z,928.26
2018-05-10T01:35:44.085Z,928.27
2018-05-10T01:36:44.085Z,928.24
2018-05-10T01:37:44.124Z,928.22
2018-05-10T01:38:44.084Z,928.23
2018-05-10T01:39:44.082Z,928.25
2018-05-10T01:40:44.083Z,928.24
2018-05-10T01:41:44.079Z,928.26
2018-05-10T01:42:44.082Z,928.25
2018-05-10T01:43:44.079Z,928.26
2018-05-10T01:44:44.080Z,928.25
2018-05-10T01:45:44.077Z,928.25
2018-05-10T01:46:44.077Z,928.23
2018-05-10T01:47:44.075Z,928.22
2018-05-10T01:48:44.075Z,928.22
2018-05-10T01:49:44.077Z,928.23
2018-05-10T01:50:44.074Z,928.23
2018-05-10T01:51:44.073Z,928.28
2018-05-10T01:52:44.072Z,928.30
2018-05-10T01:53:44.071Z,928.26
2018-05-10T01:54:44.070Z,928.28
2018-05-10T01:55:44.071Z,928.31
2018-05-10T01:56:44.068Z,928.29
2018-05-10T01:57:44.070Z,928.31
2018-05-10T01:58:44.066Z,928.31
2018-05-10T01:59:44.079Z,928.30
2018-05-10T02:00:44.065Z,928.30
2018-05-10T02:01:44.063Z,928.30
2018-05-10T02:02:44.062Z,928.29
2018-05-10T02:03:44.061Z,928.26
2018-05-10T02:04:44.064Z,928.29
2018-05-10T02:05:44.109Z,928.26
2018-05-10T02:06:44.058Z,928.27
2018-05-10T02:07:44.059Z,928.29
2018-05-10T02:08:44.059Z,928.28
2018-05-10T02:09:44.057Z,928.28
2018-05-10T02:10:44.055Z,928.25
2018-05-10T02:11:44.055Z,928.27
2018-05-10T02:12:44.057Z,928.26
2018-05-10T02:13:44.053Z,928.25
2018-05-10T02:14:44.106Z,928.29
2018-05-10T02:15:44.051Z,928.25
2018-05-10T02:16:44.050Z,928.23
2018-05-10T02:17:44.049Z,928.29
2018-05-10T02:18:44.052Z,928.27
2018-05-10T02:19:44.049Z,928.28
2018-05-10T02:20:44.048Z,928.25
2018-05-10T02:21:44.046Z,928.25
2018-05-10T02:22:44.044Z,928.27
2018-05-10T02:23:44.059Z,928.31
2018-05-10T02:24:44.045Z,928.33
2018-05-10T02:25:44.041Z,928.41
2018-05-10T02:26:44.041Z,928.38
2018-05-10T02:27:44.040Z,928.40
2018-05-10T02:28:44.040Z,928.40
2018-05-10T02:29:44.055Z,928.38
2018-05-10T02:30:44.038Z,928.45
2018-05-10T02:31:44.037Z,928.47
2018-05-10T02:32:44.041Z,928.49
2018-05-10T02:33:44.039Z,928.50
2018-05-10T02:34:44.034Z,928.52
2018-05-10T02:35:44.033Z,928.47
2018-05-10T02:36:44.035Z,928.47
2018-05-10T02:37:44.031Z,928.44
2018-05-10T02:38:44.030Z,928.48
2018-05-10T02:39:44.035Z,928.54
2018-05-10T02:40:44.029Z,928.48
2018-05-10T02:41:44.029Z,928.47
2018-05-10T02:42:44.027Z,928.51
2018-05-10T02:43:44.026Z,928.48
2018-05-10T02:44:44.025Z,928.53
2018-05-10T02:45:44.026Z,928.53
2018-05-10T02:46:44.021Z,928.54
2018-05-10T02:47:44.021Z,928.55
2018-05-10T02:48:44.018Z,928.53
2018-05-10T02:49:44.019Z,928.56
2018-05-10T02:50:44.017Z,928.59
2018-05-10T02:51:44.017Z,928.57
2018-05-10T02:52:44.019Z,928.60
2018-05-10T02:53:44.015Z,928.62
2018-05-10T02:54:44.014Z,928.67
2018-05-10T02:55:44.014Z,928.68
2018-05-10T02:56:44.010Z,928.66
2018-05-10T02:57:44.016Z,928.70
2018-05-10T02:58:44.011Z,928.73
2018-05-10T02:59:44.007Z,928.70
2018-05-10T03:00:44.006Z,928.77
2018-05-10T03:01:44.004Z,928.73
2018-05-10T03:02:44.010Z,928.67
2018-05-10T03:03:44.001Z,928.67
2018-05-10T03:04:44.001Z,928.61
2018-05-10T03:05:43.998Z,928.65
2018-05-10T03:06:44.001Z,928.60
2018-05-10T03:07:43.996Z,928.60
2018-05-10T03:08:43.995Z,928.63
2018-05-10T03:09:43.995Z,928.64
2018-05-10T03:10:43.994Z,928.63
2018-05-10T03:11:43.992Z,928.64
2018-05-10T03:12:43.992Z,928.64
2018-05-10T03:13:43.993Z,928.68
2018-05-10T03:14:43.987Z,928.67
2018-05-10T03:15:43.987Z,928.68
2018-05-10T03:16:43.989Z,928.66
2018-05-10T03:17:43.986Z,928.70
2018-05-10T03:18:43.985Z,928.69
2018-05-10T03:19:43.989Z,928.71
2018-05-10T03:20:43.984Z,928.73
2018-05-10T03:21:43.979Z,928.73
2018-05-10T03:22:43.978Z,928.74
2018-05-10T03:23:43.979Z,928.74
2018-05-10T03:24:43.978Z,928.77
2018-05-10T03:25:43.976Z,928.77
2018-05-10T03:26:43.975Z,928.77
2018-05-10T03:27:43.976Z,928.79
2018-05-10T03:28:43.977Z,928.77
2018-05-10T03:29:43.974Z,928.77
2018-05-10T03:30:43.974Z,928.80
2018-05-10T03:31:43.972Z,928.80
2018-05-10T03:32:43.971Z,928.79
2018-05-10T03:33:43.973Z,928.75
2018-05-10T03:34:43.970Z,928.80
2018-05-10T03:35:43.968Z,928.77
2018-05-10T03:36:43.967Z,928.73
2018-05-10T03:37:43.970Z,928.75
2018-05-10T03:38:43.966Z,928.76
2018-05-10T03:39:43.966Z,928.72
2018-05-10T03:40:43.965Z,928.71
2018-05-10T03:41:43.965Z,928.72
2018-05-10T03:42:43.968Z,928.73
2018-05-10T03:43:43.963Z,928.74
2018-05-10T03:44:43.962Z,928.74
2018-05-10T03:45:43.960Z,928.76
2018-05-10T03:46:43.960Z,928.78
2018-05-10T03:47:43.959Z,928.72
2018-05-10T03:48:43.957Z,928.71
2018-05-10T03:49:43.957Z,928.69
2018-05-10T03:50:43.956Z,928.74
2018-05-10T03:51:43.956Z,928.75
2018-05-10T03:52:43.957Z,928.74
2018-05-10T03:53:43.954Z,928.76
2018-05-10T03:54:43.953Z,928.75
2018-05-10T03:55:43.953Z,928.74
2018-05-10T03:56:43.953Z,928.75
2018-05-10T03:57:43.951Z,928.73
2018-05-10T03:58:43.951Z,928.68
2018-05-10T03:59:43.951Z,928.70
2018-05-10T04:00:43.950Z,928.68
2018-05-10T04:01:43.948Z,928.70
2018-05-10T04:02:43.948Z,928.69
2018-05-10T04:03:43.949Z,928.69
2018-05-10T04:04:43.949Z,928.65
2018-05-10T04:05:43.945Z,928.72
2018-05-10T04:06:43.946Z,928.78
2018-05-10T04:07:43.945Z,928.77
2018-05-10T04:08:43.945Z,928.80
2018-05-10T04:09:43.942Z,928.85
2018-05-10T04:10:43.941Z,928.81
2018-05-10T04:11:43.943Z,928.87
2018-05-10T04:12:43.942Z,928.84
2018-05-10T04:13:43.941Z,928.80
2018-05-10T04:14:43.941Z,928.84
2018-05-10T04:15:43.940Z,928.79
2018-05-10T04:16:43.939Z,928.79
2018-05-10T04:17:43.939Z,928.82
2018-05-10T04:18:43.937Z,928.82
2018-05-10T04:19:43.938Z,928.82
2018-05-10T04:20:43.936Z,928.78
2018-05-10T04:21:43.936Z,928.81
2018-05-10T04:22:43.935Z,928.79
2018-05-10T04:23:43.935Z,928.81
2018-05-10T04:24:43.935Z,928.82
2018-05-10T04:25:43.933Z,928.80
2018-05-10T04:26:43.934Z,928.79
2018-05-10T04:27:43.934Z,928.84
2018-05-10T04:28:43.933Z,928.86
2018-05-10T04:29:43.932Z,928.83
2018-05-10T04:30:43.932Z,928.87
2018-05-10T04:31:43.930Z,928.87
2018-05-10T04:32:43.932Z,928.86
2018-05-10T04:33:43.931Z,928.89
2018-05-10T04:34:43.929Z,928.91
2018-05-10T04:35:43.990Z,928.89
2018-05-10T04:36:43.929Z,928.89
2018-05-10T04:37:43.928Z,928.92
2018-05-10T04:38:43.929Z,928.90
2018-05-10T04:39:43.926Z,928.92
2018-05-10T04:40:43.927Z,928.91
2018-05-10T04:41:43.929Z,928.88
2018-05-10T04:42:43.927Z,928.87
2018-05-10T04:43:43.926Z,928.97
2018-05-10T04:44:43.926Z,928.90
2018-05-10T04:45:43.924Z,928.92
2018-05-10T04:46:43.925Z,928.88
2018-05-10T04:47:43.925Z,928.87
2018-05-10T04:48:43.924Z,928.91
2018-05-10T04:49:43.924Z,928.90
2018-05-10T04:50:43.923Z,928.94
2018-05-10T04:51:43.923Z,928.90
2018-05-10T04:52:43.924Z,928.95
2018-05-10T04:53:43.926Z,928.91
2018-05-10T04:54:44.006Z,928.87
2018-05-10T04:55:43.923Z,928.91
2018-05-10T04:56:43.921Z,928.91
2018-05-10T04:57:43.921Z,928.93
2018-05-10T04:58:43.922Z,928.95
2018-05-10T04:59:43.921Z,928.98
2018-05-10T05:00:43.923Z,928.97
2018-05-10T05:01:43.922Z,929.01
2018-05-10T05:02:43.920Z,928.98
2018-05-10T05:03:43.921Z,929.04
2018-05-10T05:04:43.922Z,929.01
2018-05-10T05:05:43.919Z,929.01
2018-05-10T05:06:43.920Z,929.03
2018-05-10T05:07:43.920Z,928.97
2018-05-10T05:08:44.008Z,929.01
2018-05-10T05:09:43.921Z,929.02
2018-05-10T05:10:43.919Z,929.04
2018-05-10T05:11:43.920Z,929.00
2018-05-10T05:12:43.920Z,929.01
2018-05-10T05:13:43.919Z,929.03
2018-05-10T05:14:43.919Z,929.04
2018-05-10T05:15:43.920Z,929.06
2018-05-10T05:16:43.932Z,929.06
2018-05-10T05:17:43.918Z,929.06
2018-05-10T05:18:43.919Z,929.08
2018-05-10T05:19:43.919Z,929.07
2018-05-10T05:20:43.920Z,929.09
2018-05-10T05:21:43.919Z,929.12
2018-05-10T05:22:43.918Z,929.08
2018-05-10T05:23:43.920Z,929.08
2018-05-10T05:24:43.919Z,929.08
2018-05-10T05:25:43.919Z,929.09
2018-05-10T05:26:43.921Z,929.14
2018-05-10T05:27:43.920Z,929.15
2018-05-10T05:28:43.921Z,929.17
2018-05-10T05:29:43.921Z,929.17
2018-05-10T05:30:43.921Z,929.12
2018-05-10T05:31:43.922Z,929.12
2018-05-10T05:32:44.002Z,929.08
2018-05-10T05:33:43.922Z,929.07
2018-05-10T05:34:43.922Z,929.11
2018-05-10T05:35:43.927Z,929.12
2018-05-10T05:36:43.923Z,929.17
2018-05-10T05:37:43.923Z,929.09
2018-05-10T05:38:43.924Z,929.10
2018-05-10T05:39:43.925Z,929.15
2018-05-10T05:40:43.926Z,929.14
2018-05-10T05:41:43.925Z,929.19
2018-05-10T05:42:43.925Z,929.19
2018-05-10T05:43:43.926Z,929.23
2018-05-10T05:44:43.931Z,929.22
2018-05-10T05:45:43.928Z,929.26
2018-05-10T05:46:43.928Z,929.23
2018-05-10T05:47:43.932Z,929.17
2018-05-10T05:48:43.930Z,929.22
2018-05-10T05:49:43.930Z,929.20
2018-05-10T05:50:43.930Z,929.22
2018-05-10T05:51:43.932Z,929.25
2018-05-10T05:52:43.931Z,929.28
2018-05-10T05:53:43.932Z,929.29
2018-05-10T05:54:43.934Z,929.30
2018-05-10T05:55:43.935Z,929.33
2018-05-10T05:56:43.935Z,929.40
2018-05-10T05:57:43.934Z,929.41
2018-05-10T05:58:43.937Z,929.36
2018-05-10T05:59:43.937Z,929.40
2018-05-10T06:00:43.993Z,929.43
2018-05-10T06:01:43.939Z,929.46
2018-05-10T06:02:43.939Z,929.47
2018-05-10T06:03:43.942Z,929.48
2018-05-10T06:04:43.943Z,929.50
2018-05-10T06:05:43.943Z,929.52
2018-05-10T06:06:43.947Z,929.53
2018-05-10T06:07:43.946Z,929.49
2018-05-10T06:08:43.952Z,929.52
2018-05-10T06:09:43.948Z,929.53
2018-05-10T06:10:43.950Z,929.48
2018-05-10T06:11:43.950Z,929.51
2018-05-10T06:12:43.952Z,929.52
2018-05-10T06:13:43.953Z,929.51
2018-05-10T06:14:43.954Z,929.53
2018-05-10T06:15:43.991Z,929.53
2018-05-10T06:16:43.958Z,929.50
2018-05-10T06:17:43.960Z,929.56
2018-05-10T06:18:43.962Z,929.57
2018-05-10T06:19:43.965Z,929.62
2018-05-10T06:20:43.963Z,929.64
2018-05-10T06:21:43.964Z,929.64
2018-05-10T06:22:43.965Z,929.65
2018-05-10T06:23:43.968Z,929.67
2018-05-10T06:24:43.976Z,929.70
2018-05-10T06:25:44.037Z,929.72
2018-05-10T06:26:43.999Z,929.76
2018-05-10T06:27:43.976Z,929.71
2018-05-10T06:28:43.978Z,929.79
2018-05-10T06:29:43.982Z,929.80
2018-05-10T06:30:43.981Z,929.84
2018-05-10T06:31:43.983Z,929.81
2018-05-10T06:32:43.987Z,929.81
2018-05-10T06:33:43.987Z,929.80
2018-05-10T06:34:43.990Z,929.87
2018-05-10T06:35:43.999Z,929.89
2018-05-10T06:36:43.996Z,929.90
2018-05-10T06:37:43.997Z,929.86
2018-05-10T06:38:44.000Z,929.91
2018-05-10T06:39:44.002Z,929.91
2018-05-10T06:40:44.005Z,929.87
2018-05-10T06:41:44.010Z,929.92
2018-05-10T06:42:44.009Z,929.90
2018-05-10T06:43:44.012Z,929.91
2018-05-10T06:44:44.015Z,929.90
2018-05-10T06:45:44.017Z,929.88
2018-05-10T06:46:44.032Z,929.91
2018-05-10T06:47:44.022Z,929.92
2018-05-10T06:48:44.046Z,929.96
2018-05-10T06:49:44.027Z,929.95
2018-05-10T06:50:44.029Z,929.96
2018-05-10T06:51:44.032Z,929.97
2018-05-10T06:52:44.035Z,930.03
2018-05-10T06:53:44.038Z,930.03
2018-05-10T06:54:44.120Z,930.06
2018-05-10T06:55:44.044Z,930.08
2018-05-10T06:56:44.047Z,930.11
2018-05-10T06:57:44.049Z,930.11
2018-05-10T06:58:44.052Z,930.09
2018-05-10T06:59:44.057Z,930.17
2018-05-10T07:00:44.064Z,930.16
2018-05-10T07:01:44.062Z,930.24
2018-05-10T07:02:44.065Z,930.39
2018-05-10T07:03:44.068Z,930.53
2018-05-10T07:04:44.072Z,930.56
2018-05-10T07:05:44.075Z,930.61
2018-05-10T07:06:44.081Z,930.62
2018-05-10T07:07:44.086Z,930.60
2018-05-10T07:08:44.093Z,930.60
2018-05-10T07:09:44.128Z,930.57
2018-05-10T07:10:44.103Z,930.56
2018-05-10T07:11:44.110Z,930.50
2018-05-10T07:12:44.115Z,930.53
2018-05-10T07:13:44.135Z,930.46
2018-05-10T07:14:44.129Z,930.51
2018-05-10T07:15:44.137Z,930.49
2018-05-10T07:16:44.142Z,930.48
2018-05-10T07:17:44.148Z,930.46
2018-05-10T07:18:44.159Z,930.43
2018-05-10T07:19:44.160Z,930.46
2018-05-10T07:20:44.168Z,930.46
2018-05-10T07:21:44.175Z,930.54
2018-05-10T07:22:44.182Z,930.54
2018-05-10T07:23:44.187Z,930.58
2018-05-10T07:24:44.192Z,930.54
2018-05-10T07:25:44.199Z,930.51
2018-05-10T07:26:44.205Z,930.53
2018-05-10T07:27:44.211Z,930.55
2018-05-10T07:28:44.218Z,930.57
2018-05-10T07:29:44.224Z,930.54
2018-05-10T07:30:44.231Z,930.62
2018-05-10T07:31:44.237Z,930.62
2018-05-10T07:32:44.245Z,930.65
2018-05-10T07:33:44.250Z,930.66
2018-05-10T07:34:44.270Z,930.66
2018-05-10T07:35:44.263Z,930.61
2018-05-10T07:36:44.273Z,930.62
2018-05-10T07:37:44.278Z,930.65
2018-05-10T07:38:44.284Z,930.61
2018-05-10T07:39:44.293Z,930.60
2018-05-10T07:40:44.298Z,930.55
2018-05-10T07:41:44.306Z,930.63
2018-05-10T07:42:44.311Z,930.59
2018-05-10T07:43:44.319Z,930.62
2018-05-10T07:44:44.325Z,930.68
2018-05-10T07:45:44.331Z,930.70
2018-05-10T07:46:44.337Z,930.65
2018-05-10T07:47:44.345Z,930.66
2018-05-10T07:48:44.354Z,930.63
2018-05-10T07:49:44.357Z,930.67
2018-05-10T07:50:44.364Z,930.69
2018-05-10T07:51:44.371Z,930.67
2018-05-10T07:52:44.378Z,930.76
2018-05-10T07:53:44.385Z,930.67
2018-05-10T07:54:44.391Z,930.71
2018-05-10T07:55:44.396Z,930.71
2018-05-10T07:56:44.435Z,930.75
2018-05-10T07:57:44.428Z,930.75
2018-05-10T07:58:44.519Z,930.95
2018-05-10T07:59:44.431Z,931.00
2018-05-10T08:00:44.462Z,930.91
2018-05-10T08:01:44.467Z,930.87
2018-05-10T08:02:44.518Z,930.82
2018-05-10T08:03:44.491Z,930.82
2018-05-10T08:04:44.539Z,930.89
2018-05-10T08:05:44.495Z,930.90
2018-05-10T08:06:44.494Z,930.94
2018-05-10T08:07:44.481Z,930.97
2018-05-10T08:08:44.488Z,930.99
2018-05-10T08:09:44.494Z,931.01
2018-05-10T08:10:44.503Z,931.04
2018-05-10T08:11:44.512Z,930.98
2018-05-10T08:12:44.520Z,931.14
2018-05-10T08:13:44.530Z,931.11
2018-05-10T08:14:44.534Z,931.12
2018-05-10T08:15:44.542Z,931.20
2018-05-10T08:16:44.551Z,931.11
2018-05-10T08:17:44.561Z,931.16
2018-05-10T08:18:44.571Z,931.24
2018-05-10T08:19:44.983Z,931.23
2018-05-10T08:20:44.591Z,931.18
2018-05-10T08:21:44.601Z,931.16
2018-05-10T08:22:44.612Z,931.14
2018-05-10T08:23:44.625Z,931.17
2018-05-10T08:24:44.633Z,931.18
2018-05-10T08:25:44.644Z,931.24
2018-05-10T08:26:44.831Z,931.25
2018-05-10T08:27:44.669Z,931.19
2018-05-10T08:28:44.674Z,931.17
2018-05-10T08:29:44.688Z,931.13
2018-05-10T08:30:44.693Z,931.21
2018-05-10T08:31:44.705Z,931.26
2018-05-10T08:32:44.713Z,931.16
2018-05-10T08:33:44.723Z,931.14
2018-05-10T08:34:44.734Z,931.14
2018-05-10T08:35:44.743Z,931.12
2018-05-10T08:36:44.769Z,931.13
2018-05-10T08:37:44.762Z,931.18
2018-05-10T08:38:44.770Z,931.18
2018-05-10T08:39:44.779Z,931.13
2018-05-10T08:40:44.786Z,931.15
2018-05-10T08:41:44.792Z,931.12
2018-05-10T08:42:44.802Z,931.14
2018-05-10T08:43:44.809Z,931.12
2018-05-10T08:44:44.817Z,931.10
2018-05-10T08:45:44.823Z,931.11
2018-05-10T08:46:44.830Z,931.11
2018-05-10T08:47:44.837Z,931.18
2018-05-10T08:48:44.974Z,931.19
2018-05-10T08:49:44.858Z,931.17
2018-05-10T08:50:44.857Z,931.16
2018-05-10T08:51:45.031Z,931.14
2018-05-10T08:52:44.870Z,931.13
2018-05-10T08:53:44.876Z,931.11
2018-05-10T08:54:44.880Z,931.21
2018-05-10T08:55:44.906Z,931.18
2018-05-10T08:56:44.893Z,931.20
2018-05-10T08:57:44.897Z,931.22
2018-05-10T08:58:44.903Z,931.32
2018-05-10T08:59:44.911Z,931.34
2018-05-10T09:00:44.914Z,931.34
2018-05-10T09:01:44.922Z,931.44
2018-05-10T09:02:44.929Z,931.37
2018-05-10T09:03:44.942Z,931.45
2018-05-10T09:04:44.947Z,931.46
2018-05-10T09:05:44.956Z,931.52
2018-05-10T09:06:44.965Z,931.46
2018-05-10T09:07:44.975Z,931.53
2018-05-10T09:08:44.986Z,931.55
2018-05-10T09:09:45.001Z,931.57
2018-05-10T09:10:45.008Z,931.53
2018-05-10T09:11:45.020Z,931.52
2018-05-10T09:12:45.034Z,931.56
2018-05-10T09:13:45.045Z,931.50
2018-05-10T09:14:45.057Z,931.52
2018-05-10T09:15:45.069Z,931.47
2018-05-10T09:16:45.080Z,931.46
2018-05-10T09:17:45.090Z,931.47
2018-05-10T09:18:45.101Z,931.47
2018-05-10T09:19:45.112Z,931.41
2018-05-10T09:20:45.122Z,931.48
2018-05-10T09:21:45.131Z,931.47
2018-05-10T09:22:45.141Z,931.59
2018-05-10T09:23:45.152Z,931.66
2018-05-10T09:24:45.161Z,931.71
2018-05-10T09:25:45.170Z,931.71
2018-05-10T09:26:45.179Z,931.69
2018-05-10T09:27:45.190Z,931.73
2018-05-10T09:28:45.203Z,931.75
2018-05-10T09:29:45.213Z,931.81
2018-05-10T09:30:45.227Z,931.79
2018-05-10T09:31:45.238Z,931.82
2018-05-10T09:32:45.251Z,931.75
2018-05-10T09:33:45.329Z,931.76
2018-05-10T09:34:45.275Z,931.73
2018-05-10T09:35:45.287Z,931.72
2018-05-10T09:36:45.301Z,931.71
2018-05-10T09:37:45.308Z,931.75
2018-05-10T09:38:45.318Z,931.74
2018-05-10T09:39:45.331Z,931.84
2018-05-10T09:40:45.341Z,931.76
2018-05-10T09:41:45.350Z,931.83
2018-05-10T09:42:45.363Z,931.72
2018-05-10T09:43:45.373Z,931.73
2018-05-10T09:44:45.448Z,931.79
2018-05-10T09:45:45.395Z,931.78
2018-05-10T09:46:45.777Z,931.86
2018-05-10T09:47:45.511Z,931.84
2018-05-10T09:48:45.467Z,931.84
2018-05-10T09:49:45.436Z,931.78
2018-05-10T09:50:45.464Z,931.78
2018-05-10T09:51:45.679Z,931.87
2018-05-10T09:52:45.657Z,931.82
2018-05-10T09:53:45.476Z,931.79
2018-05-10T09:54:45.487Z,931.78
2018-05-10T09:55:45.496Z,931.77
2018-05-10T09:56:45.505Z,931.78
2018-05-10T09:57:45.514Z,931.80
2018-05-10T09:58:45.522Z,931.81
2018-05-10T09:59:45.608Z,931.84
2018-05-10T10:00:45.541Z,931.83
2018-05-10T10:01:45.548Z,931.82
2018-05-10T10:02:45.559Z,931.82
2018-05-10T10:03:45.565Z,931.77
2018-05-10T10:04:45.574Z,931.83
2018-05-10T10:05:45.581Z,931.81
2018-05-10T10:06:45.587Z,931.83
2018-05-10T10:07:45.596Z,931.88
2018-05-10T10:08:45.602Z,931.90
2018-05-10T10:09:45.608Z,931.89
2018-05-10T10:10:45.615Z,931.96
2018-05-10T10:11:45.717Z,931.93
2018-05-10T10:12:45.630Z,931.95
2018-05-10T10:13:45.637Z,931.91
2018-05-10T10:14:45.642Z,931.98
2018-05-10T10:15:45.673Z,932.02
2018-05-10T10:16:45.655Z,931.99
2018-05-10T10:17:45.659Z,931.99
2018-05-10T10:18:45.673Z,932.02
2018-05-10T10:19:45.672Z,932.05
2018-05-10T10:20:45.678Z,932.08
2018-05-10T10:21:45.683Z,932.09
2018-05-10T10:22:45.689Z,932.05
2018-05-10T10:23:45.915Z,932.03
2018-05-10T10:24:45.973Z,932.10
2018-05-10T10:25:45.704Z,932.09
2018-05-10T10:26:45.710Z,932.06
2018-05-10T10:27:45.715Z,932.05
2018-05-10T10:28:45.721Z,932.05
2018-05-10T10:29:45.724Z,932.09
2018-05-10T10:30:45.729Z,932.09
2018-05-10T10:31:45.735Z,932.12
2018-05-10T10:32:45.740Z,932.15
2018-05-10T10:33:45.852Z,932.12
2018-05-10T10:34:45.749Z,932.17
2018-05-10T10:35:45.918Z,932.15
2018-05-10T10:36:45.763Z,932.20
2018-05-10T10:37:45.762Z,932.23
2018-05-10T10:38:45.768Z,932.21
2018-05-10T10:39:45.772Z,932.22
2018-05-10T10:40:45.776Z,932.22
2018-05-10T10:41:45.781Z,932.26
2018-05-10T10:42:45.786Z,932.28
2018-05-10T10:43:45.791Z,932.24
2018-05-10T10:44:45.795Z,932.28
2018-05-10T10:45:45.800Z,932.29
2018-05-10T10:46:45.804Z,932.27
2018-05-10T10:47:45.808Z,932.31
2018-05-10T10:48:45.813Z,932.30
2018-05-10T10:49:45.816Z,932.32
2018-05-10T10:50:45.826Z,932.31
2018-05-10T10:51:45.825Z,932.35
2018-05-10T10:52:45.877Z,932.36
2018-05-10T10:53:45.910Z,932.32
2018-05-10T10:54:45.839Z,932.35
2018-05-10T10:55:45.844Z,932.33
2018-05-10T10:56:45.847Z,932.32
2018-05-10T10:57:45.957Z,932.38
2018-05-10T10:58:45.857Z,932.37
2018-05-10T10:59:45.859Z,932.37
2018-05-10T11:00:45.865Z,932.34
2018-05-10T11:01:45.927Z,932.38
2018-05-10T11:02:45.871Z,932.36
2018-05-10T11:03:45.879Z,932.34
2018-05-10T11:04:45.880Z,932.36
2018-05-10T11:05:45.883Z,932.34
2018-05-10T11:06:45.891Z,932.37
2018-05-10T11:07:45.893Z,932.35
2018-05-10T11:08:45.902Z,932.37
2018-05-10T11:09:45.900Z,932.34
2018-05-10T11:10:45.907Z,932.37
2018-05-10T11:11:45.906Z,932.38
2018-05-10T11:12:45.911Z,932.35
2018-05-10T11:13:45.951Z,932.35
2018-05-10T11:14:45.916Z,932.38
2018-05-10T11:15:45.936Z,932.40
2018-05-10T11:16:45.928Z,932.45
2018-05-10T11:17:45.932Z,932.48
2018-05-10T11:18:45.934Z,932.48
2018-05-10T11:19:45.938Z,932.52
2018-05-10T11:20:45.976Z,932.50
2018-05-10T11:21:45.946Z,932.52
2018-05-10T11:22:45.950Z,932.59
2018-05-10T11:23:45.957Z,932.58
2018-05-10T11:24:45.962Z,932.55
2018-05-10T11:25:45.965Z,932.59
2018-05-10T11:26:45.973Z,932.64
2018-05-10T11:27:45.979Z,932.57
2018-05-10T11:28:45.984Z,932.59
2018-05-10T11:29:46.027Z,932.57
2018-05-10T11:30:45.997Z,932.61
2018-05-10T11:31:46.003Z,932.56
2018-05-10T11:32:46.009Z,932.63
2018-05-10T11:33:46.333Z,932.58
2018-05-10T11:34:46.021Z,932.63
2018-05-10T11:35:46.028Z,932.62
2018-05-10T11:36:46.034Z,932.62
2018-05-10T11:37:46.042Z,932.64
2018-05-10T11:38:46.050Z,932.66
2018-05-10T11:39:46.057Z,932.66
2018-05-10T11:40:46.088Z,932.69
2018-05-10T11:41:46.070Z,932.65
2018-05-10T11:42:46.079Z,932.64
2018-05-10T11:43:46.162Z,932.66
2018-05-10T11:44:46.097Z,932.66
2018-05-10T11:45:46.102Z,932.71
2018-05-10T11:46:46.110Z,932.71
2018-05-10T11:47:46.119Z,932.66
2018-05-10T11:48:46.167Z,932.68
2018-05-10T11:49:46.137Z,932.74
2018-05-10T11:50:46.145Z,932.73
2018-05-10T11:51:46.154Z,932.76
2018-05-10T11:52:46.162Z,932.73
2018-05-10T11:53:46.176Z,932.73
2018-05-10T11:54:46.229Z,932.70
2018-05-10T11:55:46.189Z,932.75
2018-05-10T11:56:46.201Z,932.68
2018-05-10T11:57:46.207Z,932.70
2018-05-10T11:58:46.215Z,932.76
2018-05-10T11:59:46.224Z,932.71
2018-05-10T12:00:46.232Z,932.72
2018-05-10T12:01:46.240Z,932.74
2018-05-10T12:02:46.249Z,932.78
2018-05-10T12:03:46.257Z,932.75
2018-05-10T12:04:46.266Z,932.72
2018-05-10T12:05:46.272Z,932.74
2018-05-10T12:06:46.282Z,932.73
2018-05-10T12:07:46.291Z,932.74
2018-05-10T12:08:46.296Z,932.76
2018-05-10T12:09:46.303Z,932.79
2018-05-10T12:10:46.311Z,932.74
2018-05-10T12:11:46.318Z,932.73
2018-05-10T12:12:46.326Z,932.74
2018-05-10T12:13:46.334Z,932.77
2018-05-10T12:14:46.344Z,932.73
2018-05-10T12:15:46.348Z,932.74
2018-05-10T12:16:46.355Z,932.75
2018-05-10T12:17:46.362Z,932.78
2018-05-10T12:18:46.369Z,932.79
2018-05-10T12:19:46.376Z,932.79
2018-05-10T12:20:46.384Z,932.84
2018-05-10T12:21:46.390Z,932.78
2018-05-10T12:22:46.397Z,932.75
2018-05-10T12:23:46.404Z,932.75
2018-05-10T12:24:46.413Z,932.76
2018-05-10T12:25:46.419Z,932.77
2018-05-10T12:26:46.426Z,932.75
2018-05-10T12:27:46.435Z,932.78
2018-05-10T12:28:46.441Z,932.80
2018-05-10T12:29:46.448Z,932.85